Heighington, United Kingdom
Current Conditions -  °F | °C
As of 1:50 PM on Monday 22 Dec 2014 (Local Time) from EGXW Reporting Station
Broken Clouds Broken Clouds  
Wind Chill: 55°   Ceiling: 2000
Heat Index: 55°   Visibility: 6mi
Dew Point: 48°   Wind: 21mph
Humidity: 77%   Direction: 240°WSW
Pressure: 29.83"   Gusts: 32mph
Location:  53.21°N, 0.46°W
Report Text: EGXW 221350Z 24018G28KT 9999 BKN020 13/09 Q1010 WHT
Loading
Personal Weather Stations






























Interactive Weather Map New forecast layout! Learn more

10-Day Weather Forecast

Advertisements
Track Severe Weather on mobile